sensor_id;sensor_type;location;lat;lon;timestamp;pressure;altitude;pressure_sealevel;temperature;humidity
6427;BME280;3246;42.664;23.308;2023-09-07T00:01:54;120715.88;;;-142.62;62.54
6427;BME280;3246;42.664;23.308;2023-09-07T00:04:21;120715.88;;;-142.62;62.38
6427;BME280;3246;42.664;23.308;2023-09-07T00:06:48;120715.88;;;-142.62;62.09
6427;BME280;3246;42.664;23.308;2023-09-07T00:09:15;120715.88;;;-142.62;62.27
6427;BME280;3246;42.664;23.308;2023-09-07T00:11:43;120715.88;;;-142.62;62.54
6427;BME280;3246;42.664;23.308;2023-09-07T00:14:10;120715.88;;;-142.62;62.48
6427;BME280;3246;42.664;23.308;2023-09-07T00:16:38;120715.88;;;-142.62;62.52
6427;BME280;3246;42.664;23.308;2023-09-07T00:19:05;120715.88;;;-142.62;63.03
6427;BME280;3246;42.664;23.308;2023-09-07T00:21:32;120715.88;;;-142.62;63.70
6427;BME280;3246;42.664;23.308;2023-09-07T00:23:59;120715.88;;;-142.62;63.78
6427;BME280;3246;42.664;23.308;2023-09-07T00:26:30;120715.88;;;-142.62;64.45
6427;BME280;3246;42.664;23.308;2023-09-07T00:28:57;120715.88;;;-142.62;64.87
6427;BME280;3246;42.664;23.308;2023-09-07T00:31:24;120715.88;;;-142.62;64.96
6427;BME280;3246;42.664;23.308;2023-09-07T00:33:52;120715.88;;;-142.62;65.14
6427;BME280;3246;42.664;23.308;2023-09-07T00:36:19;120715.88;;;-142.62;65.06
6427;BME280;3246;42.664;23.308;2023-09-07T00:38:46;120715.88;;;-142.62;65.25
6427;BME280;3246;42.664;23.308;2023-09-07T00:41:13;120715.88;;;-142.62;65.40
6427;BME280;3246;42.664;23.308;2023-09-07T00:43:40;120715.88;;;-142.62;65.72
6427;BME280;3246;42.664;23.308;2023-09-07T00:46:07;120715.88;;;-142.62;66.13
6427;BME280;3246;42.664;23.308;2023-09-07T00:48:34;120715.88;;;-142.62;66.15
6427;BME280;3246;42.664;23.308;2023-09-07T00:51:03;120715.88;;;-142.62;67.09
6427;BME280;3246;42.664;23.308;2023-09-07T00:53:30;120715.88;;;-142.62;67.13
6427;BME280;3246;42.664;23.308;2023-09-07T00:55:58;120715.88;;;-142.62;66.59
6427;BME280;3246;42.664;23.308;2023-09-07T00:58:25;120715.88;;;-142.62;66.48
6427;BME280;3246;42.664;23.308;2023-09-07T01:00:51;120715.88;;;-142.62;67.43
6427;BME280;3246;42.664;23.308;2023-09-07T01:03:18;120715.88;;;-142.62;66.98
6427;BME280;3246;42.664;23.308;2023-09-07T01:05:49;120715.88;;;-142.62;67.03
6427;BME280;3246;42.664;23.308;2023-09-07T01:08:23;120715.88;;;-142.62;67.33
6427;BME280;3246;42.664;23.308;2023-09-07T01:10:51;120715.88;;;-142.62;67.65
6427;BME280;3246;42.664;23.308;2023-09-07T01:13:18;120715.88;;;-142.62;67.51
6427;BME280;3246;42.664;23.308;2023-09-07T01:15:45;120715.88;;;-142.62;68.07
6427;BME280;3246;42.664;23.308;2023-09-07T01:18:12;120715.88;;;-142.62;68.29
6427;BME280;3246;42.664;23.308;2023-09-07T01:20:40;120715.88;;;-142.62;68.15
6427;BME280;3246;42.664;23.308;2023-09-07T01:23:10;120715.88;;;-142.62;68.73
6427;BME280;3246;42.664;23.308;2023-09-07T01:25:39;120715.88;;;-142.62;68.32
6427;BME280;3246;42.664;23.308;2023-09-07T01:28:07;120715.88;;;-142.62;68.76
6427;BME280;3246;42.664;23.308;2023-09-07T01:30:35;120715.88;;;-142.62;69.44
6427;BME280;3246;42.664;23.308;2023-09-07T01:33:02;120715.88;;;-142.62;69.31
6427;BME280;3246;42.664;23.308;2023-09-07T01:35:31;120715.88;;;-142.62;70.05
6427;BME280;3246;42.664;23.308;2023-09-07T01:37:58;120715.88;;;-142.62;70.00
6427;BME280;3246;42.664;23.308;2023-09-07T01:40:27;120715.88;;;-142.62;69.90
6427;BME280;3246;42.664;23.308;2023-09-07T01:42:54;120715.88;;;-142.62;70.08
6427;BME280;3246;42.664;23.308;2023-09-07T01:45:20;120715.88;;;-142.62;70.32
6427;BME280;3246;42.664;23.308;2023-09-07T01:47:49;120715.88;;;-142.62;70.60
6427;BME280;3246;42.664;23.308;2023-09-07T01:50:16;120715.88;;;-142.62;70.57
6427;BME280;3246;42.664;23.308;2023-09-07T01:52:45;120715.88;;;-142.62;70.41
6427;BME280;3246;42.664;23.308;2023-09-07T01:55:11;120715.88;;;-142.62;71.10
6427;BME280;3246;42.664;23.308;2023-09-07T01:57:40;120715.88;;;-142.62;71.03
6427;BME280;3246;42.664;23.308;2023-09-07T02:00:07;120715.88;;;-142.62;71.53
6427;BME280;3246;42.664;23.308;2023-09-07T02:02:34;120715.88;;;-142.62;71.39
6427;BME280;3246;42.664;23.308;2023-09-07T02:05:01;120715.88;;;-142.62;71.64
6427;BME280;3246;42.664;23.308;2023-09-07T02:07:28;120715.88;;;-142.62;72.17
6427;BME280;3246;42.664;23.308;2023-09-07T02:09:54;120715.88;;;-142.62;72.40
6427;BME280;3246;42.664;23.308;2023-09-07T02:12:21;120715.88;;;-142.62;72.56
6427;BME280;3246;42.664;23.308;2023-09-07T02:14:49;120715.88;;;-142.62;72.51
6427;BME280;3246;42.664;23.308;2023-09-07T02:17:16;120715.88;;;-142.62;72.94
6427;BME280;3246;42.664;23.308;2023-09-07T02:19:44;120715.88;;;-142.62;72.28
6427;BME280;3246;42.664;23.308;2023-09-07T02:22:10;120715.88;;;-142.62;73.01
6427;BME280;3246;42.664;23.308;2023-09-07T02:24:37;120715.88;;;-142.62;73.02
6427;BME280;3246;42.664;23.308;2023-09-07T02:27:04;120715.88;;;-142.62;72.65
6427;BME280;3246;42.664;23.308;2023-09-07T02:29:31;120715.88;;;-142.62;73.22
6427;BME280;3246;42.664;23.308;2023-09-07T02:31:59;120715.88;;;-142.62;73.36
6427;BME280;3246;42.664;23.308;2023-09-07T02:34:26;120715.88;;;-142.62;73.13
6427;BME280;3246;42.664;23.308;2023-09-07T02:36:52;120715.88;;;-142.62;72.99
6427;BME280;3246;42.664;23.308;2023-09-07T02:39:19;120715.88;;;-142.62;72.87
6427;BME280;3246;42.664;23.308;2023-09-07T02:41:46;120715.88;;;-142.62;72.42
6427;BME280;3246;42.664;23.308;2023-09-07T02:44:13;120715.88;;;-142.62;73.04
6427;BME280;3246;42.664;23.308;2023-09-07T02:46:40;120715.88;;;-142.62;73.00
6427;BME280;3246;42.664;23.308;2023-09-07T02:49:08;120715.88;;;-142.62;73.16
6427;BME280;3246;42.664;23.308;2023-09-07T02:51:35;120715.88;;;-142.62;73.50
6427;BME280;3246;42.664;23.308;2023-09-07T02:54:02;120715.88;;;-142.62;73.01
6427;BME280;3246;42.664;23.308;2023-09-07T02:56:29;120715.88;;;-142.62;73.44
6427;BME280;3246;42.664;23.308;2023-09-07T02:58:56;120715.88;;;-142.62;73.10
6427;BME280;3246;42.664;23.308;2023-09-07T03:01:23;120715.88;;;-142.62;73.80
6427;BME280;3246;42.664;23.308;2023-09-07T03:03:49;120715.88;;;-142.62;73.83
6427;BME280;3246;42.664;23.308;2023-09-07T03:06:18;120715.88;;;-142.62;74.54
6427;BME280;3246;42.664;23.308;2023-09-07T03:08:45;120715.88;;;-142.62;73.93
6427;BME280;3246;42.664;23.308;2023-09-07T03:11:12;120715.88;;;-142.62;74.41
6427;BME280;3246;42.664;23.308;2023-09-07T03:13:39;120715.88;;;-142.62;74.11
6427;BME280;3246;42.664;23.308;2023-09-07T03:16:06;120715.88;;;-142.62;74.29
6427;BME280;3246;42.664;23.308;2023-09-07T03:18:33;120715.88;;;-142.62;73.78
6427;BME280;3246;42.664;23.308;2023-09-07T03:21:01;120715.88;;;-142.62;74.38
6427;BME280;3246;42.664;23.308;2023-09-07T03:23:30;120715.88;;;-142.62;74.44
6427;BME280;3246;42.664;23.308;2023-09-07T03:25:57;120715.88;;;-142.62;74.63
6427;BME280;3246;42.664;23.308;2023-09-07T03:28:24;120715.88;;;-142.62;74.39
6427;BME280;3246;42.664;23.308;2023-09-07T03:30:51;120715.88;;;-142.62;74.52
6427;BME280;3246;42.664;23.308;2023-09-07T03:33:18;120715.88;;;-142.62;74.57
6427;BME280;3246;42.664;23.308;2023-09-07T03:35:45;120715.88;;;-142.62;74.71
6427;BME280;3246;42.664;23.308;2023-09-07T03:38:12;120715.88;;;-142.62;75.72
6427;BME280;3246;42.664;23.308;2023-09-07T03:40:41;120715.88;;;-142.62;75.73
6427;BME280;3246;42.664;23.308;2023-09-07T03:43:07;120715.88;;;-142.62;75.83
6427;BME280;3246;42.664;23.308;2023-09-07T03:45:34;120715.88;;;-142.62;76.08
6427;BME280;3246;42.664;23.308;2023-09-07T03:48:01;120715.88;;;-142.62;76.42
6427;BME280;3246;42.664;23.308;2023-09-07T03:50:28;120715.88;;;-142.62;77.17
6427;BME280;3246;42.664;23.308;2023-09-07T03:52:54;120715.88;;;-142.62;76.81
6427;BME280;3246;42.664;23.308;2023-09-07T03:55:21;120715.88;;;-142.62;77.31
6427;BME280;3246;42.664;23.308;2023-09-07T03:57:50;120715.88;;;-142.62;77.88
6427;BME280;3246;42.664;23.308;2023-09-07T04:00:17;120715.88;;;-142.62;77.72
6427;BME280;3246;42.664;23.308;2023-09-07T04:02:45;120715.88;;;-142.62;78.33
6427;BME280;3246;42.664;23.308;2023-09-07T04:05:12;120715.88;;;-142.62;79.11
6427;BME280;3246;42.664;23.308;2023-09-07T04:07:39;120715.88;;;-142.62;79.54
6427;BME280;3246;42.664;23.308;2023-09-07T04:10:06;120715.88;;;-142.62;79.62
6427;BME280;3246;42.664;23.308;2023-09-07T04:12:33;120715.88;;;-142.62;79.08
6427;BME280;3246;42.664;23.308;2023-09-07T04:15:03;120715.88;;;-142.62;79.38
6427;BME280;3246;42.664;23.308;2023-09-07T04:17:29;120715.88;;;-142.62;79.25
6427;BME280;3246;42.664;23.308;2023-09-07T04:20:05;120715.88;;;-142.62;79.08
6427;BME280;3246;42.664;23.308;2023-09-07T04:22:32;120715.88;;;-142.62;79.18
6427;BME280;3246;42.664;23.308;2023-09-07T04:24:59;120715.88;;;-142.62;80.13
6427;BME280;3246;42.664;23.308;2023-09-07T04:27:26;120715.88;;;-142.62;79.73
6427;BME280;3246;42.664;23.308;2023-09-07T04:29:53;120715.88;;;-142.62;80.28
6427;BME280;3246;42.664;23.308;2023-09-07T04:32:21;120715.88;;;-142.62;80.71
6427;BME280;3246;42.664;23.308;2023-09-07T04:34:53;120715.88;;;-142.62;80.04
6427;BME280;3246;42.664;23.308;2023-09-07T04:37:21;120715.88;;;-142.62;80.18
6427;BME280;3246;42.664;23.308;2023-09-07T04:39:51;120715.88;;;-142.62;80.42
6427;BME280;3246;42.664;23.308;2023-09-07T04:42:19;120715.88;;;-142.62;79.96
6427;BME280;3246;42.664;23.308;2023-09-07T04:44:46;120715.88;;;-142.62;79.97
6427;BME280;3246;42.664;23.308;2023-09-07T04:47:13;120715.88;;;-142.62;79.85
6427;BME280;3246;42.664;23.308;2023-09-07T04:49:41;120715.88;;;-142.62;79.57
6427;BME280;3246;42.664;23.308;2023-09-07T04:52:07;120715.88;;;-142.62;79.61
6427;BME280;3246;42.664;23.308;2023-09-07T04:54:35;120715.88;;;-142.62;79.28
6427;BME280;3246;42.664;23.308;2023-09-07T04:57:01;120715.88;;;-142.62;79.75
6427;BME280;3246;42.664;23.308;2023-09-07T04:59:28;120715.88;;;-142.62;79.53
6427;BME280;3246;42.664;23.308;2023-09-07T05:01:59;120715.88;;;-142.62;79.66
6427;BME280;3246;42.664;23.308;2023-09-07T05:04:26;120715.88;;;-142.62;79.67
6427;BME280;3246;42.664;23.308;2023-09-07T05:06:55;120715.88;;;-142.62;79.55
6427;BME280;3246;42.664;23.308;2023-09-07T05:09:22;120715.88;;;-142.62;78.92
6427;BME280;3246;42.664;23.308;2023-09-07T05:11:50;120715.88;;;-142.62;78.57
6427;BME280;3246;42.664;23.308;2023-09-07T05:14:17;120715.88;;;-142.62;77.39
6427;BME280;3246;42.664;23.308;2023-09-07T05:16:44;120715.88;;;-142.62;77.75
6427;BME280;3246;42.664;23.308;2023-09-07T05:19:11;120715.88;;;-142.62;78.34
6427;BME280;3246;42.664;23.308;2023-09-07T05:21:38;120715.88;;;-142.62;78.31
6427;BME280;3246;42.664;23.308;2023-09-07T05:24:06;120715.88;;;-142.62;78.27
6427;BME280;3246;42.664;23.308;2023-09-07T05:26:33;120715.88;;;-142.62;77.77
6427;BME280;3246;42.664;23.308;2023-09-07T05:29:00;120715.88;;;-142.62;77.98
6427;BME280;3246;42.664;23.308;2023-09-07T05:31:27;120715.88;;;-142.62;77.71
6427;BME280;3246;42.664;23.308;2023-09-07T05:33:53;120715.88;;;-142.62;77.83
6427;BME280;3246;42.664;23.308;2023-09-07T05:36:20;120715.88;;;-142.62;77.32
6427;BME280;3246;42.664;23.308;2023-09-07T05:38:47;120715.88;;;-142.62;76.79
6427;BME280;3246;42.664;23.308;2023-09-07T05:41:15;120715.88;;;-142.62;76.78
6427;BME280;3246;42.664;23.308;2023-09-07T05:43:42;120715.88;;;-142.62;76.95
6427;BME280;3246;42.664;23.308;2023-09-07T05:46:08;120715.88;;;-142.62;76.82
6427;BME280;3246;42.664;23.308;2023-09-07T05:48:35;120715.88;;;-142.62;77.21
6427;BME280;3246;42.664;23.308;2023-09-07T05:51:02;120715.88;;;-142.62;77.52
6427;BME280;3246;42.664;23.308;2023-09-07T05:53:29;120715.88;;;-142.62;76.91
6427;BME280;3246;42.664;23.308;2023-09-07T05:55:56;120715.88;;;-142.62;77.26
6427;BME280;3246;42.664;23.308;2023-09-07T05:58:24;120715.88;;;-142.62;77.29
6427;BME280;3246;42.664;23.308;2023-09-07T06:00:50;120715.88;;;-142.62;76.93
6427;BME280;3246;42.664;23.308;2023-09-07T06:03:18;120715.88;;;-142.62;76.60
6427;BME280;3246;42.664;23.308;2023-09-07T06:06:08;120715.88;;;-142.62;76.53
6427;BME280;3246;42.664;23.308;2023-09-07T06:08:35;120715.88;;;-142.62;76.82
6427;BME280;3246;42.664;23.308;2023-09-07T06:11:02;120715.88;;;-142.62;76.66
6427;BME280;3246;42.664;23.308;2023-09-07T06:13:30;120715.88;;;-142.62;76.00
6427;BME280;3246;42.664;23.308;2023-09-07T06:15:57;120715.88;;;-142.62;76.09
6427;BME280;3246;42.664;23.308;2023-09-07T06:18:25;120715.88;;;-142.62;76.34
6427;BME280;3246;42.664;23.308;2023-09-07T06:20:52;120715.88;;;-142.62;75.90
6427;BME280;3246;42.664;23.308;2023-09-07T06:23:19;120715.88;;;-142.62;76.75
6427;BME280;3246;42.664;23.308;2023-09-07T06:25:46;120715.88;;;-142.62;75.14
6427;BME280;3246;42.664;23.308;2023-09-07T06:28:12;120715.88;;;-142.62;75.17
6427;BME280;3246;42.664;23.308;2023-09-07T06:30:41;120715.88;;;-142.62;72.49
6427;BME280;3246;42.664;23.308;2023-09-07T06:33:07;120715.88;;;-142.62;72.13
6427;BME280;3246;42.664;23.308;2023-09-07T06:35:34;120715.88;;;-142.62;71.30
6427;BME280;3246;42.664;23.308;2023-09-07T06:38:01;120715.88;;;-142.62;71.18
6427;BME280;3246;42.664;23.308;2023-09-07T06:40:27;120715.88;;;-142.62;70.44
6427;BME280;3246;42.664;23.308;2023-09-07T06:42:55;120715.88;;;-142.62;70.50
6427;BME280;3246;42.664;23.308;2023-09-07T06:45:23;120715.88;;;-142.62;69.98
6427;BME280;3246;42.664;23.308;2023-09-07T06:47:51;120715.88;;;-142.62;68.60
6427;BME280;3246;42.664;23.308;2023-09-07T06:50:19;120715.88;;;-142.62;68.36
6427;BME280;3246;42.664;23.308;2023-09-07T06:52:46;120715.88;;;-142.62;67.85
6427;BME280;3246;42.664;23.308;2023-09-07T06:55:13;120715.88;;;-142.62;67.82
6427;BME280;3246;42.664;23.308;2023-09-07T06:57:40;120715.88;;;-142.62;67.28
6427;BME280;3246;42.664;23.308;2023-09-07T07:00:08;120715.88;;;-142.62;67.54
6427;BME280;3246;42.664;23.308;2023-09-07T07:02:35;120715.88;;;-142.62;66.89
6427;BME280;3246;42.664;23.308;2023-09-07T07:05:05;120715.88;;;-142.62;66.21
6427;BME280;3246;42.664;23.308;2023-09-07T07:07:32;120715.88;;;-142.62;66.40
6427;BME280;3246;42.664;23.308;2023-09-07T07:09:58;120715.88;;;-142.62;65.60
6427;BME280;3246;42.664;23.308;2023-09-07T07:12:25;120715.88;;;-142.62;65.85
6427;BME280;3246;42.664;23.308;2023-09-07T07:14:52;120715.88;;;-142.62;65.57
6427;BME280;3246;42.664;23.308;2023-09-07T07:17:19;120715.88;;;-142.62;64.17
6427;BME280;3246;42.664;23.308;2023-09-07T07:19:46;120715.88;;;-142.62;64.45
6427;BME280;3246;42.664;23.308;2023-09-07T07:22:14;120715.88;;;-142.62;64.31
6427;BME280;3246;42.664;23.308;2023-09-07T07:24:41;120715.88;;;-142.62;62.39
6427;BME280;3246;42.664;23.308;2023-09-07T07:27:08;120715.88;;;-142.62;62.87
6427;BME280;3246;42.664;23.308;2023-09-07T07:29:36;120715.88;;;-142.62;63.66
6427;BME280;3246;42.664;23.308;2023-09-07T07:32:03;120715.88;;;-142.62;62.66
6427;BME280;3246;42.664;23.308;2023-09-07T07:34:30;120715.88;;;-142.62;62.16
6427;BME280;3246;42.664;23.308;2023-09-07T07:36:57;120715.88;;;-142.62;62.39
6427;BME280;3246;42.664;23.308;2023-09-07T07:39:25;120715.88;;;-142.62;62.90
6427;BME280;3246;42.664;23.308;2023-09-07T07:41:51;120715.88;;;-142.62;62.66
6427;BME280;3246;42.664;23.308;2023-09-07T07:44:18;120715.88;;;-142.62;61.21
6427;BME280;3246;42.664;23.308;2023-09-07T07:46:45;120715.88;;;-142.62;61.67
6427;BME280;3246;42.664;23.308;2023-09-07T07:49:12;120715.88;;;-142.62;59.90
6427;BME280;3246;42.664;23.308;2023-09-07T07:51:38;120715.88;;;-142.62;59.10
6427;BME280;3246;42.664;23.308;2023-09-07T07:54:05;120715.88;;;-142.62;58.55
6427;BME280;3246;42.664;23.308;2023-09-07T07:56:33;120715.88;;;-142.62;58.62
6427;BME280;3246;42.664;23.308;2023-09-07T07:59:00;120715.88;;;-142.62;58.22
6427;BME280;3246;42.664;23.308;2023-09-07T08:01:28;120715.88;;;-142.62;58.03
6427;BME280;3246;42.664;23.308;2023-09-07T08:03:55;120715.88;;;-142.62;57.32
6427;BME280;3246;42.664;23.308;2023-09-07T08:06:22;120715.88;;;-142.62;57.68
6427;BME280;3246;42.664;23.308;2023-09-07T08:08:48;120715.88;;;-142.62;57.58
6427;BME280;3246;42.664;23.308;2023-09-07T08:11:15;120715.88;;;-142.62;57.07
6427;BME280;3246;42.664;23.308;2023-09-07T08:13:48;120715.88;;;-142.62;57.15
6427;BME280;3246;42.664;23.308;2023-09-07T08:16:15;120715.88;;;-142.62;57.43
6427;BME280;3246;42.664;23.308;2023-09-07T08:18:41;120715.88;;;-142.62;57.58
6427;BME280;3246;42.664;23.308;2023-09-07T08:21:09;120715.88;;;-142.62;57.45
6427;BME280;3246;42.664;23.308;2023-09-07T08:23:36;120715.88;;;-142.62;57.53
6427;BME280;3246;42.664;23.308;2023-09-07T08:26:02;120715.88;;;-142.62;57.71
6427;BME280;3246;42.664;23.308;2023-09-07T08:28:30;120715.88;;;-142.62;56.99
6427;BME280;3246;42.664;23.308;2023-09-07T08:30:59;120715.88;;;-142.62;55.17
6427;BME280;3246;42.664;23.308;2023-09-07T08:33:26;120715.88;;;-142.62;54.70
6427;BME280;3246;42.664;23.308;2023-09-07T08:35:55;120715.88;;;-142.62;54.29
6427;BME280;3246;42.664;23.308;2023-09-07T08:38:22;120715.88;;;-142.62;54.15
6427;BME280;3246;42.664;23.308;2023-09-07T08:40:53;120715.88;;;-142.62;54.03
6427;BME280;3246;42.664;23.308;2023-09-07T08:43:21;120715.88;;;-142.62;53.88
6427;BME280;3246;42.664;23.308;2023-09-07T08:45:51;120715.88;;;-142.62;53.36
6427;BME280;3246;42.664;23.308;2023-09-07T08:48:27;120715.88;;;-142.62;53.67
6427;BME280;3246;42.664;23.308;2023-09-07T08:50:56;120715.88;;;-142.62;53.58
6427;BME280;3246;42.664;23.308;2023-09-07T08:53:23;120715.88;;;-142.62;53.27
6427;BME280;3246;42.664;23.308;2023-09-07T08:55:51;120715.88;;;-142.62;52.64
6427;BME280;3246;42.664;23.308;2023-09-07T08:58:18;120715.88;;;-142.62;52.55
6427;BME280;3246;42.664;23.308;2023-09-07T09:00:45;120715.88;;;-142.62;53.09
6427;BME280;3246;42.664;23.308;2023-09-07T09:03:12;120715.88;;;-142.62;52.48
6427;BME280;3246;42.664;23.308;2023-09-07T09:05:40;120715.88;;;-142.62;52.25
6427;BME280;3246;42.664;23.308;2023-09-07T09:08:07;120715.88;;;-142.62;51.29
6427;BME280;3246;42.664;23.308;2023-09-07T09:10:37;120715.88;;;-142.62;51.54
6427;BME280;3246;42.664;23.308;2023-09-07T09:13:04;120715.88;;;-142.62;51.44
6427;BME280;3246;42.664;23.308;2023-09-07T09:15:31;120715.88;;;-142.62;51.20
6427;BME280;3246;42.664;23.308;2023-09-07T09:17:58;120715.88;;;-142.62;51.44
6427;BME280;3246;42.664;23.308;2023-09-07T09:20:25;120715.88;;;-142.62;50.57
6427;BME280;3246;42.664;23.308;2023-09-07T09:22:54;120715.88;;;-142.62;50.38
6427;BME280;3246;42.664;23.308;2023-09-07T09:25:22;120715.88;;;-142.62;50.24
6427;BME280;3246;42.664;23.308;2023-09-07T09:27:49;120715.88;;;-142.62;50.67
6427;BME280;3246;42.664;23.308;2023-09-07T09:30:15;120715.88;;;-142.62;51.27
6427;BME280;3246;42.664;23.308;2023-09-07T09:32:43;120715.88;;;-142.62;50.53
6427;BME280;3246;42.664;23.308;2023-09-07T09:35:10;120715.88;;;-142.62;49.82
6427;BME280;3246;42.664;23.308;2023-09-07T09:37:44;120715.88;;;-142.62;48.74
6427;BME280;3246;42.664;23.308;2023-09-07T09:40:14;120715.88;;;-142.62;49.07
6427;BME280;3246;42.664;23.308;2023-09-07T09:42:42;120715.88;;;-142.62;49.36
6427;BME280;3246;42.664;23.308;2023-09-07T09:45:10;120715.88;;;-142.62;49.25
6427;BME280;3246;42.664;23.308;2023-09-07T09:47:39;120715.88;;;-142.62;48.95
6427;BME280;3246;42.664;23.308;2023-09-07T09:50:09;120715.88;;;-142.62;48.93
6427;BME280;3246;42.664;23.308;2023-09-07T09:52:36;120715.88;;;-142.62;48.53
6427;BME280;3246;42.664;23.308;2023-09-07T09:55:05;120715.88;;;-142.62;48.74
6427;BME280;3246;42.664;23.308;2023-09-07T09:57:35;120715.88;;;-142.62;48.49
6427;BME280;3246;42.664;23.308;2023-09-07T10:00:03;120715.88;;;-142.62;48.81
6427;BME280;3246;42.664;23.308;2023-09-07T10:02:48;120715.88;;;-142.62;48.74
6427;BME280;3246;42.664;23.308;2023-09-07T10:05:17;120715.88;;;-142.62;48.66
6427;BME280;3246;42.664;23.308;2023-09-07T10:07:48;120715.88;;;-142.62;48.10
6427;BME280;3246;42.664;23.308;2023-09-07T10:10:15;120715.88;;;-142.62;47.96
6427;BME280;3246;42.664;23.308;2023-09-07T10:12:44;120715.88;;;-142.62;48.27
6427;BME280;3246;42.664;23.308;2023-09-07T10:15:21;120715.88;;;-142.62;48.38
6427;BME280;3246;42.664;23.308;2023-09-07T10:17:48;120715.88;;;-142.62;48.47
6427;BME280;3246;42.664;23.308;2023-09-07T10:20:19;120715.88;;;-142.62;48.70
6427;BME280;3246;42.664;23.308;2023-09-07T10:22:48;120715.88;;;-142.62;48.83
6427;BME280;3246;42.664;23.308;2023-09-07T10:25:19;120715.88;;;-142.62;48.45
6427;BME280;3246;42.664;23.308;2023-09-07T10:27:47;120715.88;;;-142.62;48.76
6427;BME280;3246;42.664;23.308;2023-09-07T10:30:14;120715.88;;;-142.62;48.81
6427;BME280;3246;42.664;23.308;2023-09-07T10:32:45;120715.88;;;-142.62;48.63
6427;BME280;3246;42.664;23.308;2023-09-07T10:35:15;120715.88;;;-142.62;48.73
6427;BME280;3246;42.664;23.308;2023-09-07T10:37:45;120715.88;;;-142.62;48.50
6427;BME280;3246;42.664;23.308;2023-09-07T10:40:13;120715.88;;;-142.62;48.67
6427;BME280;3246;42.664;23.308;2023-09-07T10:42:44;120715.88;;;-142.62;48.77
6427;BME280;3246;42.664;23.308;2023-09-07T10:45:14;120715.88;;;-142.62;48.95
6427;BME280;3246;42.664;23.308;2023-09-07T10:47:42;120715.88;;;-142.62;48.77
6427;BME280;3246;42.664;23.308;2023-09-07T10:50:11;120715.88;;;-142.62;49.44
6427;BME280;3246;42.664;23.308;2023-09-07T10:52:39;120715.88;;;-142.62;48.55
6427;BME280;3246;42.664;23.308;2023-09-07T10:55:07;120715.88;;;-142.62;48.96
6427;BME280;3246;42.664;23.308;2023-09-07T10:57:41;120715.88;;;-142.62;49.11
6427;BME280;3246;42.664;23.308;2023-09-07T11:00:11;120715.88;;;-142.62;48.72
6427;BME280;3246;42.664;23.308;2023-09-07T11:02:41;120715.88;;;-142.62;48.70
6427;BME280;3246;42.664;23.308;2023-09-07T11:05:08;120715.88;;;-142.62;48.47
6427;BME280;3246;42.664;23.308;2023-09-07T11:07:36;120715.88;;;-142.62;47.99
6427;BME280;3246;42.664;23.308;2023-09-07T11:10:05;120715.88;;;-142.62;48.24
6427;BME280;3246;42.664;23.308;2023-09-07T11:12:36;120715.88;;;-142.62;48.39
6427;BME280;3246;42.664;23.308;2023-09-07T11:15:04;120715.88;;;-142.62;48.82
6427;BME280;3246;42.664;23.308;2023-09-07T11:17:31;120715.88;;;-142.62;48.77
6427;BME280;3246;42.664;23.308;2023-09-07T11:20:05;120715.88;;;-142.62;49.02
6427;BME280;3246;42.664;23.308;2023-09-07T11:22:33;120715.88;;;-142.62;49.45
6427;BME280;3246;42.664;23.308;2023-09-07T11:25:01;120715.88;;;-142.62;49.13
6427;BME280;3246;42.664;23.308;2023-09-07T11:27:29;120715.88;;;-142.62;49.24
6427;BME280;3246;42.664;23.308;2023-09-07T11:29:56;120715.88;;;-142.62;49.63
6427;BME280;3246;42.664;23.308;2023-09-07T11:32:23;120715.88;;;-142.62;49.35
6427;BME280;3246;42.664;23.308;2023-09-07T11:34:51;120715.88;;;-142.62;49.75
6427;BME280;3246;42.664;23.308;2023-09-07T11:37:24;120715.88;;;-142.62;49.73
6427;BME280;3246;42.664;23.308;2023-09-07T11:39:51;120715.88;;;-142.62;50.60
6427;BME280;3246;42.664;23.308;2023-09-07T11:42:18;120715.88;;;-142.62;49.97
6427;BME280;3246;42.664;23.308;2023-09-07T11:44:45;120715.88;;;-142.62;50.32
6427;BME280;3246;42.664;23.308;2023-09-07T11:47:11;120715.88;;;-142.62;50.51
6427;BME280;3246;42.664;23.308;2023-09-07T11:49:38;120715.88;;;-142.62;50.58
6427;BME280;3246;42.664;23.308;2023-09-07T11:52:05;120715.88;;;-142.62;50.05
6427;BME280;3246;42.664;23.308;2023-09-07T11:54:34;120715.88;;;-142.62;50.37
6427;BME280;3246;42.664;23.308;2023-09-07T11:57:00;120715.88;;;-142.62;50.53
6427;BME280;3246;42.664;23.308;2023-09-07T11:59:27;120715.88;;;-142.62;50.63
6427;BME280;3246;42.664;23.308;2023-09-07T12:01:54;120715.88;;;-142.62;50.45
6427;BME280;3246;42.664;23.308;2023-09-07T12:04:21;120715.88;;;-142.62;50.29
6427;BME280;3246;42.664;23.308;2023-09-07T12:06:48;120715.88;;;-142.62;50.49
6427;BME280;3246;42.664;23.308;2023-09-07T12:09:15;120715.88;;;-142.62;50.02
6427;BME280;3246;42.664;23.308;2023-09-07T12:11:43;120715.88;;;-142.62;49.77
6427;BME280;3246;42.664;23.308;2023-09-07T12:14:10;120715.88;;;-142.62;49.43
6427;BME280;3246;42.664;23.308;2023-09-07T12:16:37;120715.88;;;-142.62;49.08
6427;BME280;3246;42.664;23.308;2023-09-07T12:19:04;120715.88;;;-142.62;49.34
6427;BME280;3246;42.664;23.308;2023-09-07T12:21:30;120715.88;;;-142.62;49.28
6427;BME280;3246;42.664;23.308;2023-09-07T12:23:57;120715.88;;;-142.62;49.18
6427;BME280;3246;42.664;23.308;2023-09-07T12:26:24;120715.88;;;-142.62;48.52
6427;BME280;3246;42.664;23.308;2023-09-07T12:28:52;120715.88;;;-142.62;48.58
6427;BME280;3246;42.664;23.308;2023-09-07T12:31:19;120715.88;;;-142.62;48.87
6427;BME280;3246;42.664;23.308;2023-09-07T12:33:46;120715.88;;;-142.62;48.87
6427;BME280;3246;42.664;23.308;2023-09-07T12:36:12;120715.88;;;-142.62;48.18
6427;BME280;3246;42.664;23.308;2023-09-07T12:38:39;120715.88;;;-142.62;48.89
6427;BME280;3246;42.664;23.308;2023-09-07T12:41:06;120715.88;;;-142.62;48.95
6427;BME280;3246;42.664;23.308;2023-09-07T12:43:33;120715.88;;;-142.62;48.77